createdAt,value
2019-02-04T00:01:17.530Z,20
2019-02-04T00:06:05.985Z,21
2019-02-04T00:11:06.127Z,18
2019-02-04T00:16:06.366Z,23
2019-02-04T00:21:06.181Z,23
2019-02-04T00:26:06.201Z,22
2019-02-04T00:31:06.134Z,21
2019-02-04T00:36:06.201Z,28
2019-02-04T00:41:06.248Z,16
2019-02-04T00:46:05.995Z,25
2019-02-04T00:51:06.137Z,25
2019-02-04T00:56:06.138Z,18
2019-02-04T01:01:06.000Z,24
2019-02-04T01:06:06.267Z,32
2019-02-04T01:11:06.363Z,36
2019-02-04T01:16:06.150Z,32
2019-02-04T01:21:06.236Z,38
2019-02-04T01:26:06.056Z,34
2019-02-04T01:31:06.178Z,32
2019-02-04T01:36:06.261Z,36
2019-02-04T01:41:06.058Z,40
2019-02-04T01:46:06.213Z,36
2019-02-04T01:51:06.103Z,28
2019-02-04T01:56:06.220Z,31
2019-02-04T02:01:06.172Z,28
2019-02-04T02:06:06.126Z,35
2019-02-04T02:11:06.294Z,30
2019-02-04T02:16:06.229Z,25
2019-02-04T02:21:06.047Z,36
2019-02-04T02:26:05.834Z,35
2019-02-04T02:31:06.133Z,28
2019-02-04T02:36:05.902Z,38
2019-02-04T02:41:06.044Z,31
2019-02-04T02:46:06.024Z,45
2019-02-04T02:51:06.076Z,34
2019-02-04T02:56:06.057Z,31
2019-02-04T03:01:05.795Z,41
2019-02-04T03:06:05.762Z,41
2019-02-04T03:11:06.093Z,46
2019-02-04T03:16:06.099Z,39
2019-02-04T03:21:05.813Z,46
2019-02-04T03:26:05.860Z,35
2019-02-04T03:31:05.997Z,38
2019-02-04T03:36:06.040Z,31
2019-02-04T03:41:05.809Z,36
2019-02-04T03:46:05.798Z,30
2019-02-04T03:51:05.815Z,38
2019-02-04T03:56:17.512Z,30
2019-02-04T04:01:05.935Z,33
2019-02-04T04:06:05.959Z,35
2019-02-04T04:11:06.004Z,34
2019-02-04T04:16:05.955Z,31
2019-02-04T04:21:06.036Z,30
2019-02-04T04:26:05.841Z,25
2019-02-04T04:31:05.701Z,37
2019-02-04T04:36:05.986Z,25
2019-02-04T04:41:05.676Z,35
2019-02-04T04:46:05.882Z,32
2019-02-04T04:51:05.935Z,28
2019-02-04T04:56:05.918Z,35
2019-02-04T05:01:05.962Z,35
2019-02-04T05:06:05.724Z,27
2019-02-04T05:11:05.679Z,32
2019-02-04T05:16:05.850Z,35
2019-02-04T05:21:05.738Z,47
2019-02-04T05:26:05.851Z,30
2019-02-04T05:31:05.711Z,29
2019-02-04T05:36:05.704Z,31
2019-02-04T05:41:05.575Z,32
2019-02-04T05:46:05.846Z,35
2019-02-04T05:51:05.678Z,32
2019-02-04T05:56:05.601Z,28
2019-02-04T06:01:05.833Z,31
2019-02-04T06:06:05.548Z,28
2019-02-04T06:11:05.686Z,28
2019-02-04T06:16:05.501Z,28
2019-02-04T06:21:05.575Z,24
2019-02-04T06:26:05.693Z,33
2019-02-04T06:31:05.693Z,32
2019-02-04T06:36:05.531Z,29
2019-02-04T06:41:05.782Z,23
2019-02-04T06:46:05.571Z,25
2019-02-04T06:51:05.714Z,32
2019-02-04T06:56:05.547Z,26
2019-02-04T07:01:05.695Z,23
2019-02-04T07:06:05.467Z,25
2019-02-04T07:11:05.577Z,23
2019-02-04T07:16:05.399Z,24
2019-02-04T07:21:05.624Z,26
2019-02-04T07:26:05.366Z,27
2019-02-04T07:31:05.416Z,28
2019-02-04T07:36:05.516Z,27
2019-02-04T07:41:05.588Z,35
2019-02-04T07:46:05.651Z,31
2019-02-04T07:51:05.364Z,25
2019-02-04T07:56:05.348Z,28
2019-02-04T08:01:05.461Z,28
2019-02-04T08:06:05.496Z,27
2019-02-04T08:11:05.373Z,32
2019-02-04T08:16:05.614Z,23
2019-02-04T08:21:05.501Z,32
2019-02-04T08:26:05.626Z,24
2019-02-04T08:31:05.659Z,23
2019-02-04T08:36:05.584Z,24
2019-02-04T08:41:05.692Z,30
2019-02-04T08:46:05.557Z,22
2019-02-04T08:51:05.565Z,25
2019-02-04T08:56:05.343Z,31
2019-02-04T09:01:05.426Z,23
2019-02-04T09:06:05.286Z,27
2019-02-04T09:11:05.349Z,19
2019-02-04T09:16:05.310Z,22
2019-02-04T09:21:05.484Z,26
2019-02-04T09:26:05.494Z,23
2019-02-04T09:31:05.510Z,21
2019-02-04T09:36:05.419Z,23
2019-02-04T09:41:05.296Z,19
2019-02-04T09:46:05.395Z,21
2019-02-04T09:51:05.257Z,19
2019-02-04T09:56:05.506Z,24
2019-02-04T10:01:05.263Z,23
2019-02-04T10:06:05.253Z,25
2019-02-04T10:11:05.330Z,19
2019-02-04T10:16:05.233Z,23
2019-02-04T10:21:05.303Z,23
2019-02-04T10:26:05.207Z,30
2019-02-04T10:31:05.268Z,17
2019-02-04T10:36:05.441Z,25
2019-02-04T10:41:05.154Z,26
2019-02-04T10:46:05.308Z,19
2019-02-04T10:51:05.344Z,25
2019-02-04T10:56:05.109Z,22
2019-02-04T11:01:05.523Z,23
2019-02-04T11:06:05.367Z,27
2019-02-04T11:11:05.386Z,26
2019-02-04T11:16:05.202Z,24
2019-02-04T11:21:05.205Z,21
2019-02-04T11:26:05.083Z,24
2019-02-04T11:31:05.345Z,24
2019-02-04T11:36:05.147Z,31
2019-02-04T11:41:05.338Z,25
2019-02-04T11:46:05.412Z,22
2019-02-04T11:51:09.858Z,20
2019-02-04T11:56:05.069Z,24
2019-02-04T12:01:05.305Z,25
2019-02-04T12:06:05.131Z,25
2019-02-04T12:11:05.246Z,24
2019-02-04T12:16:05.340Z,25
2019-02-04T12:21:05.053Z,23
2019-02-04T12:26:05.019Z,17
2019-02-04T12:31:05.138Z,24
2019-02-04T12:36:05.003Z,27
2019-02-04T12:41:05.387Z,28
2019-02-04T12:46:05.143Z,24
2019-02-04T12:51:05.174Z,26
2019-02-04T12:56:05.270Z,29
2019-02-04T13:01:05.066Z,24
2019-02-04T13:06:04.932Z,29
2019-02-04T13:11:05.065Z,29
2019-02-04T13:16:04.873Z,27
2019-02-04T13:21:05.087Z,30
2019-02-04T13:26:05.009Z,31
2019-02-04T13:31:05.036Z,28
2019-02-04T13:36:05.111Z,28
2019-02-04T13:41:08.074Z,25
2019-02-04T13:46:05.962Z,28
2019-02-04T13:51:05.189Z,28
2019-02-04T13:56:04.913Z,27
2019-02-04T14:01:04.875Z,19
2019-02-04T14:06:05.069Z,19
2019-02-04T14:11:05.247Z,26
2019-02-04T14:16:05.083Z,26
2019-02-04T14:21:05.319Z,27
2019-02-04T14:26:04.813Z,33
2019-02-04T14:31:05.169Z,27
2019-02-04T14:36:05.147Z,27
2019-02-04T14:41:04.916Z,23
2019-02-04T14:46:05.025Z,29
2019-02-04T14:51:05.042Z,21
2019-02-04T14:56:04.999Z,29
2019-02-04T15:01:04.803Z,20
2019-02-04T15:06:05.032Z,35
2019-02-04T15:11:04.885Z,35
2019-02-04T15:16:04.784Z,29
2019-02-04T15:21:05.041Z,36
2019-02-04T15:26:04.756Z,28
2019-02-04T15:31:05.041Z,29
2019-02-04T15:36:04.724Z,24
2019-02-04T15:41:04.922Z,27
2019-02-04T15:46:04.881Z,22
2019-02-04T15:51:04.965Z,32
2019-02-04T15:56:04.961Z,28
2019-02-04T16:01:04.941Z,24
2019-02-04T16:06:04.931Z,35
2019-02-04T16:11:04.773Z,27
2019-02-04T16:16:04.863Z,25
2019-02-04T16:21:04.777Z,24
2019-02-04T16:26:04.970Z,34
2019-02-04T16:31:05.022Z,39
2019-02-04T16:36:04.883Z,31
2019-02-04T16:41:04.704Z,39
2019-02-04T16:46:04.630Z,35
2019-02-04T16:51:11.677Z,30
2019-02-04T16:56:04.688Z,31
2019-02-04T17:01:04.870Z,34
2019-02-04T17:06:04.799Z,27
2019-02-04T17:11:05.016Z,37
2019-02-04T17:16:04.840Z,29
2019-02-04T17:21:04.723Z,41
2019-02-04T17:26:04.710Z,36
2019-02-04T17:31:04.907Z,38
2019-02-04T17:36:04.683Z,53
2019-02-04T17:41:04.659Z,53
2019-02-04T17:46:04.865Z,34
2019-02-04T17:51:04.563Z,39
2019-02-04T17:56:04.675Z,34
2019-02-04T18:01:04.817Z,46
2019-02-04T18:06:04.817Z,38
2019-02-04T18:11:04.789Z,47
2019-02-04T18:16:04.613Z,37
2019-02-04T18:21:04.708Z,35
2019-02-04T18:26:04.539Z,41
2019-02-04T18:31:04.783Z,41
2019-02-04T18:36:04.823Z,44
2019-02-04T18:41:04.629Z,36
2019-02-04T18:46:04.689Z,44
2019-02-04T18:51:04.862Z,37
2019-02-04T18:56:04.539Z,48
2019-02-04T19:01:04.679Z,43
2019-02-04T19:06:04.704Z,56
2019-02-04T19:11:04.570Z,46
2019-02-04T19:16:04.741Z,65
2019-02-04T19:21:04.869Z,54
2019-02-04T19:26:04.735Z,58
2019-02-04T19:31:04.706Z,57
2019-02-04T19:36:04.818Z,84
2019-02-04T19:41:04.710Z,55
2019-02-04T19:46:04.463Z,74
2019-02-04T19:51:04.798Z,51
2019-02-04T19:56:04.473Z,64
2019-02-04T20:01:04.509Z,53
2019-02-04T20:06:04.582Z,74
2019-02-04T20:11:04.648Z,63
2019-02-04T20:16:04.581Z,60
2019-02-04T20:21:04.764Z,55
2019-02-04T20:26:04.368Z,67
2019-02-04T20:31:04.408Z,74
2019-02-04T20:36:04.568Z,80
2019-02-04T20:41:04.506Z,72
2019-02-04T20:46:04.472Z,79
2019-02-04T20:51:04.695Z,74
2019-02-04T20:56:04.326Z,89
2019-02-04T21:01:04.641Z,76
2019-02-04T21:06:04.605Z,86
2019-02-04T21:11:04.417Z,81
2019-02-04T21:16:04.517Z,76
2019-02-04T21:21:04.401Z,67
2019-02-04T21:26:06.842Z,69
2019-02-04T21:31:04.571Z,75
2019-02-04T21:36:04.407Z,73
2019-02-04T21:41:04.436Z,67
2019-02-04T21:46:04.388Z,68
2019-02-04T21:51:04.520Z,60
2019-02-04T21:56:04.305Z,56
2019-02-04T22:01:04.381Z,51
2019-02-04T22:06:04.394Z,55
2019-02-04T22:11:04.325Z,67
2019-02-04T22:16:04.301Z,60
2019-02-04T22:21:04.286Z,49
2019-02-04T22:26:04.418Z,62
2019-02-04T22:31:04.301Z,53
2019-02-04T22:36:04.433Z,58
2019-02-04T22:41:04.492Z,60
2019-02-04T22:46:04.240Z,62
2019-02-04T22:51:04.210Z,55
2019-02-04T22:56:04.152Z,57
2019-02-04T23:01:04.324Z,49
2019-02-04T23:06:04.294Z,59
2019-02-04T23:11:04.271Z,54
2019-02-04T23:16:04.138Z,58
2019-02-04T23:21:04.523Z,68
2019-02-04T23:26:04.191Z,65
2019-02-04T23:31:04.448Z,39
2019-02-04T23:36:04.253Z,65
2019-02-04T23:41:04.454Z,76
2019-02-04T23:46:04.415Z,68
2019-02-04T23:51:04.079Z,56
2019-02-04T23:56:04.086Z,70
